Have a Safe July 4th! 

Flight Track Log - Related Links

Times and Time Zones

All times are in EDT time to prevent confusion due to time zone crossing. See the SWA561 flight status page for this flight to view local times or setup timezone preferences in your user account.

Time Position Orientation Groundspeed Altitude Reporting Facility
EDT Latitude Longitude Course Direction KTS MPH feet Rate Location/Type
Sun 07:49:48 PM 37.7333 -122.2500 107° East 142 163 1,500  Level Northern Cal TRACON
Sun 07:50:12 PM 37.7353 -122.2639 280° West 151 174 1,800 1,835 Climbing Oakland Center
Sun 07:51:13 PM 37.7269 -122.3264 260° West 223 257 4,100 2,976 Climbing Oakland Center
Sun 07:52:15 PM 37.6639 -122.3806 214° Southwest 267 307 7,900 3,366 Climbing Oakland Center
Sun 07:53:16 PM 37.5889 -122.4267 206° Southwest 309 356 11,000 3,541 Climbing Oakland Center
Sun 07:54:17 PM 37.4756 -122.4056 172° South 350 403 15,100 3,610 Climbing Oakland Center
Sun 07:55:00 PM 37.2466 -122.2699 107° East  Level FlightAware Approximate
Sun 07:55:19 PM 37.4058 -122.3108 133° Southeast 368 423 18,400  Level Oakland Center
Sun 07:56:20 PM 37.3325 -122.2094 132° Southeast 391 450 21,200 2,754 Climbing Oakland Center
Sun 07:57:21 PM 37.2547 -122.1039 133° Southeast 410 472 24,000 2,537 Climbing Oakland Center
Sun 07:58:23 PM 37.1756 -121.9925 132° Southeast 426 490 26,400 2,195 Climbing Oakland Center
Sun 07:59:24 PM 37.0925 -121.8794 133° Southeast 441 507 28,500 2,016 Climbing Oakland Center
Sun 08:00:25 PM 37.0056 -121.7650 134° Southeast 452 520 30,500 1,854 Climbing Oakland Center
Sun 08:01:27 PM 36.9164 -121.6481 134° Southeast 464 534 32,300 2,195 Climbing Oakland Center
Sun 08:02:28 PM 36.8122 -121.5058 132° Southeast 462 532 35,000 2,016 Climbing Oakland Center
Sun 08:03:29 PM 36.7350 -121.4006 132° Southeast 460 529 36,400 1,317 Climbing Oakland Center
Sun 08:04:31 PM 36.6472 -121.2828 133° Southeast 464 534 37,700 1,024 Climbing Oakland Center
Sun 08:05:32 PM 36.5578 -121.1642 133° Southeast 469 540 38,500 639 Climbing Oakland Center
Sun 08:06:33 PM 36.4475 -121.0178 133° Southeast 481 554 39,000 246 Climbing Oakland Center
Sun 08:07:34 PM 36.3553 -120.8969 133° Southeast 483 556 39,000  Level Oakland Center
Sun 08:08:36 PM 36.2622 -120.7742 133° Southeast 487 560 39,000  Level Oakland Center
Sun 08:09:37 PM 36.1675 -120.6531 134° Southeast 488 562 39,000  Level Oakland Center
Sun 08:10:38 PM 36.0742 -120.5272 133° Southeast 494 568 39,000  Level Oakland Center
Sun 08:11:40 PM 35.9800 -120.4047 134° Southeast 489 563 39,000  Level Oakland Center
Sun 08:12:41 PM 35.8856 -120.2842 134° Southeast 485 558 39,000  Level Oakland Center
Sun 08:13:42 PM 35.7908 -120.1622 134° Southeast 487 560 39,000  Level Oakland Center
Sun 08:14:43 PM 35.6964 -120.0419 134° Southeast 485 558 39,000  Level Oakland Center
Sun 08:15:45 PM 35.5947 -119.9317 139° Southeast 481 554 39,000  Level Oakland Center
Sun 08:16:46 PM 35.4828 -119.8367 145° Southeast 482 555 39,000  Level Oakland Center
Sun 08:17:47 PM 35.3719 -119.7408 145° Southeast 483 556 39,000  Level Oakland Center
Sun 08:18:08 PM 35.3281 -119.7028 145° Southeast 487 560 39,000  Level Los Angeles Center
Sun 08:19:10 PM 35.2181 -119.6081 145° Southeast 482 555 39,000 -1,113 Level Los Angeles Center
Sun 08:20:12 PM 35.1089 -119.5150 145° Southeast 479 551 36,700 -3,024 Descending Los Angeles Center
Sun 08:21:15 PM 34.9783 -119.4028 145° Southeast 478 550 32,700 -3,552 Descending Los Angeles Center
Sun 08:22:17 PM 34.8675 -119.3094 145° Southeast 481 554 29,300 -3,000 Descending Los Angeles Center
Sun 08:23:19 PM 34.7594 -119.2181 145° Southeast 476 548 26,500 -2,613 Descending Los Angeles Center
Sun 08:24:21 PM 34.6558 -119.1325 146° Southeast 456 525 23,900 -2,565 Descending Los Angeles Center
Sun 08:25:23 PM 34.5511 -119.0439 145° Southeast 439 505 21,200 -2,516 Descending Los Angeles Center
Sun 08:26:25 PM 34.4556 -118.9653 146° Southeast 417 480 18,700 -2,419 Descending Los Angeles Center
Sun 08:27:27 PM 34.3628 -118.8878 145° Southeast 405 466 16,200 -2,661 Descending Los Angeles Center
Sun 08:28:29 PM 34.2408 -118.8383 161° South 385 443 13,200 -2,323 Descending Los Angeles Center
Sun 08:29:31 PM 34.1419 -118.8019 163° South 374 430 11,400 -1,548 Descending Los Angeles Center
Sun 08:30:33 PM 34.0497 -118.7600 159° South 338 389 10,000 -726 Descending Los Angeles Center
Sun 08:31:35 PM 34.0292 -118.6592 104° East 304 350 9,900 -774 Descending Los Angeles Center
Sun 08:32:37 PM 34.0197 -118.5606 97° East 297 342 8,400 -1,392 Descending Los Angeles Center
Sun 08:33:40 PM 34.0106 -118.4569 96° East 288 331 7,000 -1,200 Descending Los Angeles Center
Sun 08:34:42 PM 34.0206 -118.3800 81° East 275 316 5,900 -726 Descending Los Angeles Center
Sun 08:35:44 PM 34.0322 -118.2783 82° East 260 299 5,500 -1,113 Descending Los Angeles Center
Sun 08:36:46 PM 34.0050 -118.2406 131° Southeast 208 239 3,600 -1,694 Descending Los Angeles Center
Sun 08:37:48 PM 33.9747 -118.2900 234° Southwest 189 217 2,000 -1,161 Descending Los Angeles Center
Sun 08:38:50 PM 33.9583 -118.3392 248° West 171 197 1,200 -774 Descending Los Angeles Center
Sun 08:39:52 PM 33.9553 -118.3839 265° West 148 170 400 -532 Descending Los Angeles Center
Sun 08:40:54 PM 33.9497 -118.4239 261° West 143 165 100 -290 Descending Los Angeles Center
Sun 08:42:00 PM 33.9425 -118.4081 90° East  Level Estimated
Sun 08:49:00 PM 33.9425 -118.4081 228° Southwest  Level Estimated

Login

Don't have an account? Register now (free) for customized features, flight alerts, and more!